Time;durP1;ratioP1;P1;durP2;ratioP2;P2;SDS_P1;SDS_P2;PMS_P1;PMS_P2;Temp;Humidity;BMP_temperature;BMP_pressure;BME280_temperature;BME280_humidity;BME280_pressure;Samples;Min_cycle;Max_cycle;Signal;HPM_P1;HPM_P2
2023/06/20 00:02:15;;;;;;;7.15;4.88;;;;;;;25.30;52.33;98684.47;4933968;29;20023;-78
2023/06/20 00:04:40;;;;;;;8.45;5.20;;;;;;;25.30;52.35;98689.78;4935219;29;20487;-79
2023/06/20 00:07:06;;;;;;;7.72;5.35;;;;;;;25.29;52.43;98690.78;4935188;29;20106;-79
2023/06/20 00:09:31;;;;;;;7.85;4.75;;;;;;;25.30;52.28;98687.97;4935346;29;20078;-79
2023/06/20 00:11:57;;;;;;;6.18;4.70;;;;;;;25.31;52.58;98686.13;4935365;29;20035;-78
2023/06/20 00:14:22;;;;;;;6.80;5.07;;;;;;;25.31;52.34;98694.16;4935659;29;20095;-82
2023/06/20 00:16:48;;;;;;;8.20;5.07;;;;;;;25.32;52.43;98701.16;4933943;29;20032;-79
2023/06/20 00:19:13;;;;;;;7.80;5.32;;;;;;;25.31;52.50;98702.16;4934991;29;20051;-79
2023/06/20 00:21:39;;;;;;;7.85;5.30;;;;;;;25.31;52.66;98696.81;4935334;29;20031;-79
2023/06/20 00:24:09;;;;;;;7.07;5.20;;;;;;;25.32;52.76;98703.84;4935228;29;20039;-79
2023/06/20 00:26:36;;;;;;;7.63;4.80;;;;;;;25.33;52.68;98716.22;4935006;29;20156;-81
2023/06/20 00:29:01;;;;;;;8.90;4.90;;;;;;;25.34;52.67;98712.56;4935105;29;20051;-80
2023/06/20 00:31:27;;;;;;;7.57;5.32;;;;;;;25.34;52.87;98712.56;4935273;29;20028;-79
2023/06/20 00:33:52;;;;;;;6.30;5.47;;;;;;;25.34;52.84;98717.91;4934668;29;20539;-78
2023/06/20 00:36:25;;;;;;;7.68;5.25;;;;;;;25.32;53.26;98715.38;4933871;29;20035;-79
2023/06/20 00:38:51;;;;;;;7.32;5.55;;;;;;;25.32;52.96;98720.72;4935105;29;20424;-79
2023/06/20 00:41:16;;;;;;;8.65;5.60;;;;;;;25.37;52.85;98728.28;4935057;29;20036;-79
2023/06/20 00:43:42;;;;;;;7.65;5.78;;;;;;;25.38;52.96;98730.00;4935139;29;20468;-82
2023/06/20 00:46:07;;;;;;;9.02;5.40;;;;;;;25.38;53.23;98724.66;4935010;29;20477;-82
2023/06/20 00:48:33;;;;;;;7.15;5.18;;;;;;;25.38;52.90;98724.66;4934799;29;20034;-81
2023/06/20 00:50:58;;;;;;;8.20;5.40;;;;;;;25.40;53.24;98722.69;4934842;29;20028;-79
2023/06/20 00:53:24;;;;;;;11.82;5.78;;;;;;;25.43;53.07;98716.22;4933540;29;20122;-80
2023/06/20 00:55:51;;;;;;;9.60;5.60;;;;;;;25.42;53.19;98719.88;4935204;29;20032;-79
2023/06/20 00:58:16;;;;;;;9.43;5.60;;;;;;;25.45;53.21;98722.25;4934925;29;20054;-80
2023/06/20 01:00:41;;;;;;;8.40;5.38;;;;;;;25.43;53.02;98719.72;4938314;29;20492;-81
2023/06/20 01:03:14;;;;;;;7.47;5.85;;;;;;;25.41;53.34;98737.72;4938256;29;20035;-80
2023/06/20 01:05:41;;;;;;;8.35;5.82;;;;;;;25.42;53.14;98741.25;4938826;29;20484;-79
2023/06/20 01:08:12;;;;;;;9.73;5.43;;;;;;;25.41;53.47;98740.41;4938704;29;20059;-79
2023/06/20 01:10:49;;;;;;;7.05;5.43;;;;;;;25.42;53.58;98736.72;4938566;29;20067;-81
2023/06/20 01:13:39;;;;;;;7.82;5.35;;;;;;;25.44;53.50;98747.28;4937404;29;20067;-79
2023/06/20 01:16:43;;;;;;;9.68;5.88;;;;;;;25.44;53.72;98753.47;4938073;29;20040;-80
2023/06/20 01:19:28;;;;;;;7.75;5.38;;;;;;;25.42;53.60;98767.97;4938437;29;20598;-82
2023/06/20 01:21:58;;;;;;;7.13;5.43;;;;;;;25.42;53.95;98810.69;4938639;29;20031;-80
2023/06/20 01:24:52;;;;;;;8.05;5.40;;;;;;;25.43;53.71;98868.44;4938506;29;20082;-81
2023/06/20 01:27:59;;;;;;;7.80;5.78;;;;;;;25.44;54.03;98895.03;4937944;29;20028;-82
2023/06/20 01:30:36;;;;;;;8.43;5.78;;;;;;;25.44;53.97;98903.03;4897555;29;20048;-81
2023/06/20 01:33:04;;;;;;;9.55;5.97;;;;;;;25.47;54.11;98901.94;4898354;29;20078;-80
2023/06/20 01:35:32;;;;;;;10.13;5.95;;;;;;;25.47;53.87;98910.75;4898287;29;20116;-80
2023/06/20 01:38:01;;;;;;;9.73;5.93;;;;;;;25.47;53.95;98909.94;4898223;29;20032;-80
2023/06/20 01:40:28;;;;;;;8.38;5.82;;;;;;;25.46;53.96;98917.09;4898040;29;20103;-80
2023/06/20 01:42:59;;;;;;;9.82;6.47;;;;;;;25.48;54.30;98907.09;4897953;29;20112;-80
2023/06/20 01:45:28;;;;;;;8.93;6.05;;;;;;;25.48;54.01;98909.78;4897851;29;20052;-79
2023/06/20 01:47:59;;;;;;;7.75;5.97;;;;;;;25.50;53.98;98903.44;4897858;29;20036;-80
2023/06/20 01:50:28;;;;;;;8.68;5.40;;;;;;;25.50;54.10;98903.44;4898019;29;20055;-81
2023/06/20 01:52:54;;;;;;;7.40;5.55;;;;;;;25.47;54.24;98900.09;4897936;29;20181;-80
2023/06/20 01:55:21;;;;;;;9.32;5.70;;;;;;;25.47;54.44;98905.44;4897987;29;20123;-80
2023/06/20 01:57:48;;;;;;;9.85;6.50;;;;;;;25.50;54.45;98898.97;4897684;29;20040;-80
2023/06/20 02:00:15;;;;;;;7.45;5.80;;;;;;;25.50;54.42;98898.09;4897361;29;20052;-82
2023/06/20 02:02:43;;;;;;;9.63;6.03;;;;;;;25.51;54.01;98905.16;4897564;29;20029;-80
2023/06/20 02:05:10;;;;;;;8.75;5.82;;;;;;;25.51;54.24;98899.81;4902294;29;20095;-83
2023/06/20 02:07:37;;;;;;;9.85;5.78;;;;;;;25.51;54.44;98908.66;4918490;29;20028;-83
2023/06/20 02:10:04;;;;;;;8.82;5.93;;;;;;;25.51;54.44;98900.66;4918286;29;20519;-81
2023/06/20 02:12:31;;;;;;;9.35;6.13;;;;;;;25.51;54.62;98899.81;4917073;29;20569;-80
2023/06/20 02:14:58;;;;;;;7.88;6.28;;;;;;;25.52;54.36;98896.16;4918054;29;20107;-81
2023/06/20 02:17:25;;;;;;;9.05;6.28;;;;;;;25.52;54.40;98890.81;4918353;29;20031;-79
2023/06/20 02:19:50;;;;;;;8.82;6.03;;;;;;;25.53;54.28;98876.47;4918115;29;20080;-82
2023/06/20 02:22:19;;;;;;;7.82;5.60;;;;;;;25.54;54.47;98879.06;4918394;29;20032;-81
2023/06/20 02:24:48;;;;;;;9.38;6.03;;;;;;;25.53;54.42;98876.47;4918294;29;20495;-81
2023/06/20 02:27:15;;;;;;;8.75;6.32;;;;;;;25.54;54.61;98878.19;4916857;29;20430;-80
2023/06/20 02:29:42;;;;;;;10.10;6.30;;;;;;;25.54;54.30;98878.19;4917864;29;20056;-80
2023/06/20 02:32:11;;;;;;;9.52;6.82;;;;;;;25.55;54.32;98874.53;4918366;29;20054;-79
2023/06/20 02:34:41;;;;;;;8.35;5.75;;;;;;;25.54;54.70;98856.81;4936306;29;20031;-80
2023/06/20 02:37:07;;;;;;;8.63;5.72;;;;;;;25.54;54.61;98862.16;4937110;29;20054;-81
2023/06/20 02:39:33;;;;;;;9.02;5.93;;;;;;;25.53;54.65;98865.78;4937221;29;20024;-80
2023/06/20 02:41:59;;;;;;;8.48;6.07;;;;;;;25.54;54.79;98867.50;4937203;29;20028;-79
2023/06/20 02:44:25;;;;;;;8.52;6.20;;;;;;;25.54;54.80;98870.19;4919585;29;20064;-81
2023/06/20 02:47:09;;;;;;;7.75;6.38;;;;;;;25.55;54.58;98858.50;4935565;29;20028;-80
2023/06/20 02:49:56;;;;;;;9.73;6.05;;;;;;;25.56;54.76;98860.22;4936632;29;20028;-79
2023/06/20 02:52:48;;;;;;;8.40;6.45;;;;;;;25.53;54.61;98860.47;4936616;29;20043;-80
2023/06/20 02:55:34;;;;;;;9.55;6.50;;;;;;;25.53;54.55;98849.78;4936246;29;20496;-81
2023/06/20 02:58:03;;;;;;;6.78;5.68;;;;;;;25.54;54.58;98851.47;4936187;29;20042;-79
2023/06/20 03:00:30;;;;;;;7.63;5.53;;;;;;;25.54;54.70;98862.16;4936907;29;20417;-80
2023/06/20 03:03:02;;;;;;;9.60;6.05;;;;;;;25.54;54.99;98856.81;4936713;29;20027;-83
2023/06/20 03:05:32;;;;;;;8.98;6.45;;;;;;;25.55;54.95;98863.84;4935311;29;20031;-80
2023/06/20 03:07:59;;;;;;;10.70;7.07;;;;;;;25.55;55.05;98853.16;4936609;29;20034;-79
2023/06/20 03:10:25;;;;;;;8.90;6.57;;;;;;;25.57;54.87;98830.69;4936386;29;20515;-82
2023/06/20 03:12:50;;;;;;;10.68;6.40;;;;;;;25.57;54.77;98824.50;4936121;29;20165;-81
2023/06/20 03:15:16;;;;;;;8.02;6.10;;;;;;;25.57;55.19;98835.19;4936528;29;20031;-81
2023/06/20 03:17:41;;;;;;;9.15;5.70;;;;;;;25.57;54.95;98836.03;4935038;29;20027;-81
2023/06/20 03:20:09;;;;;;;10.38;7.03;;;;;;;25.60;55.12;98845.59;4936181;29;20493;-79
2023/06/20 03:22:34;;;;;;;9.23;6.35;;;;;;;25.56;54.98;98844.19;4935835;29;20023;-79
2023/06/20 03:25:00;;;;;;;9.05;6.90;;;;;;;25.56;55.29;98841.53;4936084;29;20025;-80
2023/06/20 03:27:25;;;;;;;10.35;6.80;;;;;;;25.57;55.32;98819.16;4950498;29;20032;-80
2023/06/20 03:29:50;;;;;;;9.57;6.35;;;;;;;25.56;55.16;98822.81;4936077;29;20095;-80
2023/06/20 03:32:16;;;;;;;9.20;6.70;;;;;;;25.55;55.32;98821.97;4950745;29;20468;-80
2023/06/20 03:34:41;;;;;;;8.60;6.78;;;;;;;25.55;55.33;98815.78;4954802;29;20066;-80
2023/06/20 03:37:06;;;;;;;9.88;6.93;;;;;;;25.55;55.67;98821.97;4955148;29;20062;-80
2023/06/20 03:39:32;;;;;;;9.05;6.53;;;;;;;25.57;55.45;98830.69;4954938;29;20492;-79
2023/06/20 03:41:57;;;;;;;10.43;6.55;;;;;;;25.55;55.47;98843.34;4954880;29;20051;-80
2023/06/20 03:44:23;;;;;;;11.45;7.22;;;;;;;25.57;55.56;98845.88;4955084;29;20715;-81
2023/06/20 03:46:48;;;;;;;11.60;6.55;;;;;;;25.56;55.58;98861.06;4954928;29;20052;-80
2023/06/20 03:49:13;;;;;;;10.55;7.10;;;;;;;25.56;55.66;98860.22;4954786;29;20039;-79
2023/06/20 03:51:39;;;;;;;8.63;6.38;;;;;;;25.56;55.67;98870.91;4954875;29;20492;-80
2023/06/20 03:54:05;;;;;;;10.00;7.13;;;;;;;25.57;55.54;98868.06;4954799;28;20023;-79
2023/06/20 03:56:30;;;;;;;9.05;6.68;;;;;;;25.57;55.75;98878.75;4954270;29;20035;-80
2023/06/20 03:58:55;;;;;;;10.93;6.97;;;;;;;25.58;56.11;98898.31;4954538;29;20027;-79
2023/06/20 04:01:24;;;;;;;10.00;6.82;;;;;;;25.57;55.84;98899.31;4946097;29;20493;-81
2023/06/20 04:03:50;;;;;;;10.95;6.90;;;;;;;25.59;55.84;98902.69;4935497;29;20107;-81
2023/06/20 04:06:15;;;;;;;9.15;7.40;;;;;;;25.59;55.93;98908.00;4935443;29;20043;-79
2023/06/20 04:08:42;;;;;;;11.63;7.43;;;;;;;25.58;55.77;98919.69;4935555;29;20059;-79
2023/06/20 04:11:07;;;;;;;9.45;6.47;;;;;;;25.55;56.04;98922.63;4934869;29;20059;-80
2023/06/20 04:13:33;;;;;;;11.15;6.78;;;;;;;25.58;56.04;98911.66;4935546;29;20119;-80
2023/06/20 04:15:58;;;;;;;10.38;7.22;;;;;;;25.58;56.22;98923.19;4935275;29;20435;-79
2023/06/20 04:18:24;;;;;;;10.15;7.43;;;;;;;25.56;56.09;98913.66;4935595;29;20027;-79
2023/06/20 04:20:49;;;;;;;11.77;7.55;;;;;;;25.57;55.94;98920.69;4935215;29;20020;-80
2023/06/20 04:23:14;;;;;;;9.35;6.88;;;;;;;25.56;55.92;98916.31;4950174;29;20373;-82
2023/06/20 04:25:40;;;;;;;10.45;7.80;;;;;;;25.57;55.97;98916.16;4932705;29;20527;-82
2023/06/20 04:28:05;;;;;;;11.38;6.95;;;;;;;25.59;56.10;98921.38;4933567;29;20034;-80
2023/06/20 04:30:31;;;;;;;9.40;7.22;;;;;;;25.60;56.20;98926.59;4935175;29;20043;-80
2023/06/20 04:32:57;;;;;;;10.73;7.53;;;;;;;25.60;56.21;98925.72;4934822;29;20102;-79
2023/06/20 04:35:22;;;;;;;10.82;7.38;;;;;;;25.59;56.66;98918.69;4935328;29;20034;-80
2023/06/20 04:37:56;;;;;;;8.90;7.32;;;;;;;25.60;56.66;98915.03;4935291;29;20071;-80
2023/06/20 04:40:21;;;;;;;11.15;7.75;;;;;;;25.59;56.31;98905.34;4934598;29;20032;-79
2023/06/20 04:42:47;;;;;;;10.93;7.43;;;;;;;25.58;56.60;98901.81;4935132;29;20032;-80
2023/06/20 04:45:12;;;;;;;13.43;7.35;;;;;;;25.55;56.79;98901.25;4933587;29;20028;-79
2023/06/20 04:47:39;;;;;;;10.40;7.78;;;;;;;25.51;57.04;98892.63;4935058;29;20031;-81
2023/06/20 04:50:05;;;;;;;11.20;7.55;;;;;;;25.52;56.91;98904.19;4935240;29;20082;-80
2023/06/20 04:52:31;;;;;;;10.93;7.18;;;;;;;25.52;57.15;98909.53;4944523;29;20040;-81
2023/06/20 04:55:01;;;;;;;10.77;7.00;;;;;;;25.51;57.05;98907.84;4916204;29;20028;-83
2023/06/20 04:57:27;;;;;;;10.43;7.25;;;;;;;25.55;56.95;98922.63;4915988;29;20055;-80
2023/06/20 04:59:53;;;;;;;11.93;7.97;;;;;;;25.58;56.71;98919.69;4916501;29;20036;-82
2023/06/20 05:02:18;;;;;;;12.45;7.35;;;;;;;25.57;57.18;98920.69;4916291;29;20032;-82
2023/06/20 05:04:44;;;;;;;11.25;7.40;;;;;;;25.57;56.85;98912.66;4916231;29;20040;-84
2023/06/20 05:07:09;;;;;;;11.52;7.22;;;;;;;25.53;57.65;98908.53;4946510;29;20036;-82
2023/06/20 05:09:34;;;;;;;14.63;8.38;;;;;;;25.52;57.99;98902.34;4929954;29;20448;-80
2023/06/20 05:12:00;;;;;;;12.98;8.15;;;;;;;25.57;58.11;98899.31;4928065;29;20060;-76
2023/06/20 05:14:25;;;;;;;13.35;8.45;;;;;;;25.56;57.81;98894.94;4933583;29;20031;-79
2023/06/20 05:16:50;;;;;;;15.55;8.10;;;;;;;25.55;58.44;98888.75;4934455;29;20499;-78
2023/06/20 05:19:16;;;;;;;13.88;7.95;;;;;;;25.56;58.32;98878.94;4934787;29;20115;-79
2023/06/20 05:21:41;;;;;;;13.70;8.18;;;;;;;25.55;57.93;98879.88;4934518;29;20424;-80
2023/06/20 05:24:07;;;;;;;14.27;7.68;;;;;;;25.55;58.04;98879.88;4934231;29;20031;-80
2023/06/20 05:26:33;;;;;;;12.38;8.38;;;;;;;25.55;58.18;98879.88;4934485;29;20023;-80
2023/06/20 05:28:58;;;;;;;16.33;8.50;;;;;;;25.55;57.99;98875.41;4934299;29;20135;-79
2023/06/20 05:31:24;;;;;;;13.77;8.07;;;;;;;25.58;57.98;98876.94;4934125;29;20024;-81
2023/06/20 05:33:51;;;;;;;13.27;8.57;;;;;;;25.59;57.58;98881.31;4934291;29;20074;-80
2023/06/20 05:36:16;;;;;;;10.75;7.45;;;;;;;25.61;57.83;98873.97;4934004;29;20036;-79
2023/06/20 05:38:42;;;;;;;14.07;7.93;;;;;;;25.63;57.24;98874.72;4934316;29;20484;-80
2023/06/20 05:41:07;;;;;;;12.00;7.97;;;;;;;25.58;57.59;98876.94;4933099;29;20043;-78
2023/06/20 05:43:33;;;;;;;13.88;7.78;;;;;;;25.60;57.51;98875.81;4934850;29;20035;-74
2023/06/20 05:45:59;;;;;;;11.23;7.65;;;;;;;25.64;57.40;98876.41;4936004;29;20023;-73
2023/06/20 05:48:25;;;;;;;12.85;8.23;;;;;;;25.67;57.03;98886.78;4937715;29;20039;-75
2023/06/20 05:50:54;;;;;;;13.68;8.52;;;;;;;25.69;56.83;98894.66;4937265;29;20050;-73
2023/06/20 05:53:20;;;;;;;12.40;8.18;;;;;;;25.70;56.70;98905.22;4936427;29;20032;-73
2023/06/20 05:55:46;;;;;;;11.13;8.30;;;;;;;25.71;56.67;98906.91;4937420;29;20032;-73
2023/06/20 05:58:11;;;;;;;12.45;8.07;;;;;;;25.72;56.74;98905.09;4936294;29;20031;-75
2023/06/20 06:00:37;;;;;;;12.02;8.48;;;;;;;25.72;57.00;98903.25;4936994;29;20110;-75
2023/06/20 06:03:02;;;;;;;15.30;8.70;;;;;;;25.74;57.01;98905.78;4936938;29;20032;-76
2023/06/20 06:05:29;;;;;;;14.10;9.80;;;;;;;25.75;56.50;98912.81;4937125;29;20028;-74
2023/06/20 06:07:54;;;;;;;14.52;9.38;;;;;;;25.75;56.33;98918.16;4937589;29;20090;-76
2023/06/20 06:10:20;;;;;;;13.40;8.90;;;;;;;25.72;56.49;98913.94;4937388;29;20019;-75
2023/06/20 06:12:45;;;;;;;11.80;8.57;;;;;;;25.73;56.50;98907.59;4937455;29;20493;-74
2023/06/20 06:15:13;;;;;;;12.45;8.15;;;;;;;25.73;56.47;98904.94;4937449;29;20028;-75
2023/06/20 06:17:39;;;;;;;12.02;8.55;;;;;;;25.76;56.15;98897.66;4937167;29;20042;-74
2023/06/20 06:20:08;;;;;;;12.02;8.13;;;;;;;25.76;56.59;98897.66;4936956;29;20024;-75
2023/06/20 06:22:33;;;;;;;11.40;8.25;;;;;;;25.75;56.21;98902.13;4937174;29;20035;-75
2023/06/20 06:24:59;;;;;;;14.52;8.20;;;;;;;25.77;56.36;98893.97;4937350;29;20028;-74
2023/06/20 06:27:24;;;;;;;12.63;8.02;;;;;;;25.79;56.14;98897.34;4936814;29;20079;-74
2023/06/20 06:29:49;;;;;;;10.45;8.32;;;;;;;25.81;56.34;98903.41;4937040;29;20047;-75
2023/06/20 06:32:19;;;;;;;12.00;7.90;;;;;;;25.81;55.99;98903.41;4936938;29;20048;-74
2023/06/20 06:34:48;;;;;;;10.95;7.65;;;;;;;25.80;56.27;98904.41;4936922;29;20035;-76
2023/06/20 06:37:14;;;;;;;13.90;8.07;;;;;;;25.80;55.94;98885.69;4937152;29;20032;-74
2023/06/20 06:39:40;;;;;;;10.90;7.38;;;;;;;25.80;55.93;98880.34;4937048;29;20114;-76
2023/06/20 06:42:05;;;;;;;12.48;8.27;;;;;;;25.82;56.27;98875.72;4936945;29;20106;-75
2023/06/20 06:44:31;;;;;;;11.02;7.70;;;;;;;25.80;56.22;98867.00;4936933;29;20028;-75
2023/06/20 06:46:56;;;;;;;9.05;7.10;;;;;;;25.81;56.19;98868.69;4936728;29;20031;-74
2023/06/20 06:49:22;;;;;;;9.27;6.95;;;;;;;25.82;55.98;98871.19;4936728;29;20030;-76
2023/06/20 06:51:48;;;;;;;10.55;7.78;;;;;;;25.82;55.93;98865.03;4936581;29;20106;-74
2023/06/20 06:54:13;;;;;;;11.02;7.70;;;;;;;25.84;56.12;98865.72;4936823;29;20488;-74
2023/06/20 06:56:39;;;;;;;9.20;7.78;;;;;;;25.83;56.23;98866.69;4935755;29;20052;-74
2023/06/20 06:59:04;;;;;;;8.57;6.72;;;;;;;25.83;55.73;98858.69;4936567;29;20027;-74
2023/06/20 07:01:29;;;;;;;9.80;7.20;;;;;;;25.83;56.16;98856.00;4938938;29;20024;-74
2023/06/20 07:03:56;;;;;;;9.00;6.57;;;;;;;25.84;55.89;98855.88;4936235;29;20019;-74
2023/06/20 07:06:21;;;;;;;9.13;6.78;;;;;;;25.85;55.96;98859.38;4936180;29;20027;-73
2023/06/20 07:08:46;;;;;;;10.30;7.55;;;;;;;25.85;55.59;98846.00;4936526;29;20107;-75
2023/06/20 07:11:12;;;;;;;11.02;7.28;;;;;;;25.87;55.65;98844.06;4936380;29;20392;-75
2023/06/20 07:13:37;;;;;;;8.88;6.53;;;;;;;25.87;56.12;98841.41;4936395;29;20485;-75
2023/06/20 07:16:03;;;;;;;7.55;6.63;;;;;;;25.87;56.03;98849.41;4936427;29;20040;-74
2023/06/20 07:18:28;;;;;;;9.35;6.95;;;;;;;25.87;55.90;98868.13;4935804;29;20036;-74
2023/06/20 07:20:57;;;;;;;8.98;6.90;;;;;;;25.87;55.47;98882.31;4936070;29;20023;-74
2023/06/20 07:23:22;;;;;;;9.65;7.03;;;;;;;25.86;55.55;98903.84;4935702;29;20031;-74
2023/06/20 07:25:48;;;;;;;11.27;7.65;;;;;;;25.87;55.64;98910.88;4935881;29;20047;-74
2023/06/20 07:28:13;;;;;;;9.38;7.20;;;;;;;25.86;55.51;98922.56;4936059;29;20524;-76
2023/06/20 07:30:38;;;;;;;9.65;7.03;;;;;;;25.85;55.69;98929.72;4935865;29;20054;-74
2023/06/20 07:33:05;;;;;;;9.25;7.07;;;;;;;25.85;55.70;98940.41;4935364;29;20118;-74
2023/06/20 07:35:31;;;;;;;9.68;7.32;;;;;;;25.86;55.61;98949.28;4935839;29;20374;-74
2023/06/20 07:37:56;;;;;;;8.65;6.60;;;;;;;25.84;55.80;98954.75;4934496;29;20034;-74
2023/06/20 07:40:22;;;;;;;8.63;6.82;;;;;;;25.85;56.03;98944.91;4935945;29;20024;-74
2023/06/20 07:42:47;;;;;;;8.05;6.35;;;;;;;25.86;55.58;98946.59;4935489;29;20023;-75
2023/06/20 07:45:13;;;;;;;8.88;7.30;;;;;;;25.89;55.50;98948.16;4935729;29;20408;-74
2023/06/20 07:47:38;;;;;;;9.52;7.20;;;;;;;25.88;55.51;98949.97;4935387;29;20358;-74
2023/06/20 07:50:04;;;;;;;9.02;7.93;;;;;;;25.88;55.43;98941.97;4935606;29;20028;-76
2023/06/20 07:52:31;;;;;;;9.98;7.22;;;;;;;25.89;55.80;98940.97;4935408;29;20067;-75
2023/06/20 07:54:57;;;;;;;8.05;6.72;;;;;;;25.90;55.25;98931.97;4935649;29;20477;-75
2023/06/20 07:57:23;;;;;;;7.88;7.07;;;;;;;25.90;55.61;98931.97;4935570;29;20051;-74
2023/06/20 07:59:48;;;;;;;7.75;6.55;;;;;;;25.90;55.43;98934.63;4935567;29;20110;-75
2023/06/20 08:02:14;;;;;;;10.00;6.85;;;;;;;25.91;55.68;98912.28;4935087;29;20038;-73
2023/06/20 08:04:39;;;;;;;9.57;6.63;;;;;;;25.91;55.31;98901.56;4935478;29;20023;-74
2023/06/20 08:07:05;;;;;;;8.57;7.07;;;;;;;25.91;55.44;98906.91;4935382;29;20027;-74
2023/06/20 08:09:30;;;;;;;7.93;6.50;;;;;;;25.93;55.42;98904.13;4935110;29;20032;-73
2023/06/20 08:11:56;;;;;;;7.22;6.35;;;;;;;25.93;55.54;98888.94;4935074;29;20040;-75
2023/06/20 08:14:21;;;;;;;8.45;6.72;;;;;;;25.91;55.66;98837.44;4935042;29;20039;-74
2023/06/20 08:16:47;;;;;;;9.27;7.07;;;;;;;25.92;55.17;98812.41;4934752;29;20031;-73
2023/06/20 08:19:12;;;;;;;8.45;6.93;;;;;;;25.92;55.30;98843.63;4935327;29;20164;-74
2023/06/20 08:21:38;;;;;;;8.52;6.53;;;;;;;25.94;55.46;98906.66;4935102;29;20437;-74
2023/06/20 08:24:04;;;;;;;9.98;6.95;;;;;;;25.92;55.28;98939.84;4935187;29;20024;-74
2023/06/20 08:26:30;;;;;;;8.40;6.97;;;;;;;25.92;55.49;98932.69;4934716;29;20027;-75
2023/06/20 08:28:55;;;;;;;7.90;6.70;;;;;;;25.94;55.68;98917.34;4935028;29;20044;-74
2023/06/20 08:31:21;;;;;;;7.95;6.70;;;;;;;25.95;55.38;98897.66;4934637;29;20059;-74
2023/06/20 08:33:46;;;;;;;7.50;6.63;;;;;;;25.95;55.51;98905.66;4934938;29;20452;-73
2023/06/20 08:36:12;;;;;;;8.68;7.45;;;;;;;25.97;55.56;98910.88;4934974;29;20035;-73
2023/06/20 08:38:38;;;;;;;8.63;7.25;;;;;;;25.97;55.33;98919.75;4934916;29;20024;-75
2023/06/20 08:41:07;;;;;;;9.48;7.85;;;;;;;25.98;55.34;98929.47;4934821;29;20028;-73
2023/06/20 08:43:34;;;;;;;8.93;7.25;;;;;;;25.98;55.13;98916.09;4934753;29;20484;-74
2023/06/20 08:45:59;;;;;;;9.02;7.60;;;;;;;25.98;55.21;98933.94;4934552;29;20028;-75
2023/06/20 08:48:25;;;;;;;8.68;6.93;;;;;;;25.97;55.28;98935.78;4934712;29;20032;-76
2023/06/20 08:50:51;;;;;;;10.00;7.07;;;;;;;25.97;55.39;98938.47;4934670;29;20032;-74
2023/06/20 08:53:17;;;;;;;8.38;6.85;;;;;;;25.99;55.57;98936.50;4934700;29;20032;-76
2023/06/20 08:55:44;;;;;;;8.25;7.18;;;;;;;25.99;55.13;98915.09;4934673;29;20079;-75
2023/06/20 08:58:10;;;;;;;9.43;7.30;;;;;;;25.99;55.23;98903.56;4934697;29;20027;-74
2023/06/20 09:00:37;;;;;;;8.75;7.18;;;;;;;25.98;55.59;98924.13;4934623;29;20023;-74
2023/06/20 09:03:03;;;;;;;7.60;6.80;;;;;;;25.97;55.61;98933.13;4934643;29;20031;-75
2023/06/20 09:05:32;;;;;;;8.52;7.35;;;;;;;25.97;55.18;98927.78;4934730;29;20086;-77
2023/06/20 09:07:57;;;;;;;9.60;7.20;;;;;;;26.01;55.29;98918.47;4934740;29;20090;-75
2023/06/20 09:10:24;;;;;;;8.60;6.65;;;;;;;26.03;55.41;98917.47;4933548;29;20441;-75
2023/06/20 09:12:59;;;;;;;7.80;7.00;;;;;;;25.99;55.31;98909.75;4934306;29;20036;-75
2023/06/20 09:15:25;;;;;;;8.32;6.88;;;;;;;26.01;55.22;98897.09;4934279;29;20519;-75
2023/06/20 09:17:53;;;;;;;8.10;7.03;;;;;;;26.03;55.35;98880.06;4934646;29;20093;-75
2023/06/20 09:20:20;;;;;;;8.15;7.28;;;;;;;26.04;55.46;98868.41;4935614;29;20051;-75
2023/06/20 09:22:45;;;;;;;10.05;7.47;;;;;;;26.03;55.46;98856.00;4938271;29;20020;-74
2023/06/20 09:25:12;;;;;;;11.45;7.60;;;;;;;26.04;55.16;98863.06;4938457;29;20039;-74
2023/06/20 09:27:41;;;;;;;10.55;7.05;;;;;;;26.04;55.49;98847.03;4937929;29;20539;-75
2023/06/20 09:30:07;;;;;;;9.90;7.25;;;;;;;26.06;55.22;98839.69;4937840;29;20552;-75
2023/06/20 09:32:40;;;;;;;8.73;6.82;;;;;;;26.07;55.45;98846.72;4937867;29;20044;-74
2023/06/20 09:35:08;;;;;;;8.80;7.28;;;;;;;26.10;55.09;98841.09;4921060;29;20066;-76
2023/06/20 09:37:46;;;;;;;9.07;7.00;;;;;;;26.10;54.71;98803.69;4938073;29;20032;-74
2023/06/20 09:40:14;;;;;;;9.60;7.57;;;;;;;26.12;55.20;98785.66;4937789;29;20072;-74
2023/06/20 09:42:41;;;;;;;10.45;7.18;;;;;;;26.12;54.91;98788.31;4937949;29;20484;-75
2023/06/20 09:45:12;;;;;;;9.95;7.30;;;;;;;26.14;55.45;98778.31;4936277;29;20122;-75
2023/06/20 09:47:39;;;;;;;9.70;7.25;;;;;;;26.15;55.02;98790.72;4937701;29;20400;-73
2023/06/20 09:50:09;;;;;;;9.65;7.10;;;;;;;26.15;55.06;98828.16;4937879;29;20040;-75
2023/06/20 09:52:49;;;;;;;10.10;6.65;;;;;;;26.17;54.95;98841.34;4937562;29;20043;-76
2023/06/20 09:55:16;;;;;;;10.05;7.47;;;;;;;26.18;54.93;98854.59;4937734;29;20031;-74
2023/06/20 09:57:43;;;;;;;10.85;7.35;;;;;;;26.19;55.20;98828.72;4937349;29;20103;-74
2023/06/20 10:00:17;;;;;;;11.20;7.03;;;;;;;26.20;55.22;98836.56;4937816;29;20024;-72
2023/06/20 10:02:46;;;;;;;11.00;7.72;;;;;;;26.22;55.33;98845.31;4937839;29;20518;-73
2023/06/20 10:05:16;;;;;;;10.48;7.30;;;;;;;26.23;55.05;98835.47;4937535;29;20024;-75
2023/06/20 10:07:44;;;;;;;8.95;7.93;;;;;;;26.24;55.33;98819.28;4937515;29;20032;-75
2023/06/20 10:10:11;;;;;;;8.77;7.30;;;;;;;26.25;55.41;98809.44;4937585;29;20036;-74
2023/06/20 10:12:39;;;;;;;10.07;7.43;;;;;;;26.26;55.28;98819.97;4937089;29;20034;-76
2023/06/20 10:15:07;;;;;;;9.80;7.65;;;;;;;26.26;55.19;98830.66;4937372;29;20039;-75
2023/06/20 10:17:38;;;;;;;8.63;6.75;;;;;;;26.27;55.08;98835.06;4937141;29;20028;-74
2023/06/20 10:20:07;;;;;;;10.45;7.05;;;;;;;26.28;55.01;98817.16;4937237;29;20123;-74
2023/06/20 10:22:38;;;;;;;10.20;6.82;;;;;;;26.29;55.26;98804.66;4937186;29;20042;-76
2023/06/20 10:25:14;;;;;;;11.13;6.85;;;;;;;26.30;55.29;98803.66;4937126;29;20044;-74
2023/06/20 10:27:43;;;;;;;10.68;7.30;;;;;;;26.29;55.17;98804.66;4936936;29;20043;-74
2023/06/20 10:30:12;;;;;;;11.10;7.15;;;;;;;26.30;55.29;98798.31;4936794;29;20059;-73
2023/06/20 10:33:08;;;;;;;10.88;7.45;;;;;;;26.32;55.06;98790.97;4936983;29;20035;-74
2023/06/20 10:35:33;;;;;;;10.10;7.78;;;;;;;26.32;54.91;98797.19;4937005;29;20385;-75
2023/06/20 10:38:08;;;;;;;10.43;7.65;;;;;;;26.32;55.24;98813.22;4937059;29;20028;-75
2023/06/20 10:40:35;;;;;;;9.48;7.50;;;;;;;26.33;55.02;98830.13;4935678;29;20118;-74
2023/06/20 10:43:08;;;;;;;10.93;7.35;;;;;;;26.34;54.79;98831.81;4936727;29;20035;-72
2023/06/20 10:45:34;;;;;;;9.23;7.07;;;;;;;26.36;55.29;98840.53;4936837;29;20055;-74
2023/06/20 10:48:03;;;;;;;12.20;7.72;;;;;;;26.37;54.89;98840.38;4936667;29;20098;-73
2023/06/20 10:50:30;;;;;;;10.13;6.75;;;;;;;26.37;55.27;98847.56;4936642;29;20028;-75
2023/06/20 10:52:58;;;;;;;9.88;7.70;;;;;;;26.38;55.19;98860.78;4936671;29;20116;-75
2023/06/20 10:55:26;;;;;;;10.35;7.25;;;;;;;26.38;55.39;98863.47;4936386;29;20032;-74
2023/06/20 10:57:53;;;;;;;10.48;7.50;;;;;;;26.39;55.29;98865.16;4936720;29;20074;-75
2023/06/20 11:00:21;;;;;;;8.20;7.03;;;;;;;26.39;54.93;98858.97;4936488;29;20034;-75
2023/06/20 11:02:52;;;;;;;8.43;6.75;;;;;;;26.39;55.50;98850.94;4936153;29;20023;-75
2023/06/20 11:05:22;;;;;;;10.55;7.78;;;;;;;26.41;55.25;98859.66;4936408;29;20038;-74
2023/06/20 11:07:56;;;;;;;10.88;7.68;;;;;;;26.42;55.01;98842.63;4936391;29;20027;-73
2023/06/20 11:10:36;;;;;;;10.00;7.38;;;;;;;26.43;55.30;98844.28;4936026;29;20461;-73
2023/06/20 11:13:04;;;;;;;9.57;7.18;;;;;;;26.43;55.34;98840.78;4936192;29;20115;-74
2023/06/20 11:15:37;;;;;;;8.93;6.95;;;;;;;26.44;55.23;98829.94;4936187;29;20063;-74
2023/06/20 11:18:04;;;;;;;8.68;7.35;;;;;;;26.45;55.20;98823.63;4936176;29;20107;-74
2023/06/20 11:20:35;;;;;;;10.80;7.00;;;;;;;26.46;55.37;98824.44;4936341;29;20036;-76
2023/06/20 11:23:02;;;;;;;10.77;7.80;;;;;;;26.47;55.23;98800.22;4936248;29;20031;-74
2023/06/20 11:25:29;;;;;;;10.73;7.90;;;;;;;26.49;55.30;98798.25;4935622;29;20400;-75
2023/06/20 11:28:03;;;;;;;8.95;7.13;;;;;;;26.50;54.98;98801.78;4936295;29;20031;-75
2023/06/20 11:30:30;;;;;;;12.02;7.30;;;;;;;26.52;54.86;98791.75;4935672;29;20044;-76
2023/06/20 11:33:15;;;;;;;8.63;7.38;;;;;;;26.53;55.27;98782.75;4935725;29;20034;-74